sensor_id;sensor_type;location;lat;lon;timestamp;temperature;humidity
42615;DHT22;28754;47.700;7.924;2023-05-21T00:02:44;14.80;99.90
42615;DHT22;28754;47.700;7.924;2023-05-21T00:05:31;14.80;99.90
42615;DHT22;28754;47.700;7.924;2023-05-21T00:08:18;14.80;99.90
42615;DHT22;28754;47.700;7.924;2023-05-21T00:11:05;14.80;99.90
42615;DHT22;28754;47.700;7.924;2023-05-21T00:13:52;14.90;99.90
42615;DHT22;28754;47.700;7.924;2023-05-21T00:16:39;14.90;99.90
42615;DHT22;28754;47.700;7.924;2023-05-21T00:19:25;14.80;99.90
42615;DHT22;28754;47.700;7.924;2023-05-21T00:22:12;14.80;99.90
42615;DHT22;28754;47.700;7.924;2023-05-21T00:24:59;14.80;99.90
42615;DHT22;28754;47.700;7.924;2023-05-21T00:27:46;14.80;99.90
42615;DHT22;28754;47.700;7.924;2023-05-21T00:30:33;14.70;99.90
42615;DHT22;28754;47.700;7.924;2023-05-21T00:33:19;14.70;99.90
42615;DHT22;28754;47.700;7.924;2023-05-21T00:36:07;14.70;99.90
42615;DHT22;28754;47.700;7.924;2023-05-21T00:38:54;14.70;99.90
42615;DHT22;28754;47.700;7.924;2023-05-21T00:41:40;14.70;99.90
42615;DHT22;28754;47.700;7.924;2023-05-21T00:44:28;14.70;99.90
42615;DHT22;28754;47.700;7.924;2023-05-21T00:47:19;14.70;99.90
42615;DHT22;28754;47.700;7.924;2023-05-21T00:50:07;14.70;99.90
42615;DHT22;28754;47.700;7.924;2023-05-21T00:52:54;14.70;99.90
42615;DHT22;28754;47.700;7.924;2023-05-21T00:55:42;14.70;99.90
42615;DHT22;28754;47.700;7.924;2023-05-21T00:58:29;14.70;99.90
42615;DHT22;28754;47.700;7.924;2023-05-21T01:01:17;14.70;99.90
42615;DHT22;28754;47.700;7.924;2023-05-21T01:04:04;14.70;99.90
42615;DHT22;28754;47.700;7.924;2023-05-21T01:06:51;14.70;99.90
42615;DHT22;28754;47.700;7.924;2023-05-21T01:09:39;14.70;99.90
42615;DHT22;28754;47.700;7.924;2023-05-21T01:12:29;14.70;99.90
42615;DHT22;28754;47.700;7.924;2023-05-21T01:15:17;14.70;99.90
42615;DHT22;28754;47.700;7.924;2023-05-21T01:18:04;14.70;99.90
42615;DHT22;28754;47.700;7.924;2023-05-21T01:20:51;14.70;99.90
42615;DHT22;28754;47.700;7.924;2023-05-21T01:23:39;14.70;99.90
42615;DHT22;28754;47.700;7.924;2023-05-21T01:26:25;14.70;99.90
42615;DHT22;28754;47.700;7.924;2023-05-21T01:29:13;14.70;99.90
42615;DHT22;28754;47.700;7.924;2023-05-21T01:32:15;14.60;99.90
42615;DHT22;28754;47.700;7.924;2023-05-21T01:35:14;14.60;99.90
42615;DHT22;28754;47.700;7.924;2023-05-21T01:41:21;14.60;99.90
42615;DHT22;28754;47.700;7.924;2023-05-21T01:44:10;14.60;99.90
42615;DHT22;28754;47.700;7.924;2023-05-21T01:46:58;14.60;99.90
42615;DHT22;28754;47.700;7.924;2023-05-21T01:49:46;14.60;99.90
42615;DHT22;28754;47.700;7.924;2023-05-21T01:52:32;14.60;99.90
42615;DHT22;28754;47.700;7.924;2023-05-21T01:55:19;14.60;99.90
42615;DHT22;28754;47.700;7.924;2023-05-21T01:58:10;14.50;99.90
42615;DHT22;28754;47.700;7.924;2023-05-21T02:00:56;14.50;99.90
42615;DHT22;28754;47.700;7.924;2023-05-21T02:03:43;14.50;99.90
42615;DHT22;28754;47.700;7.924;2023-05-21T02:06:30;14.50;99.90
42615;DHT22;28754;47.700;7.924;2023-05-21T02:09:17;14.40;99.90
42615;DHT22;28754;47.700;7.924;2023-05-21T02:12:04;14.50;99.90
42615;DHT22;28754;47.700;7.924;2023-05-21T02:14:50;14.40;99.90
42615;DHT22;28754;47.700;7.924;2023-05-21T02:17:37;14.40;99.90
42615;DHT22;28754;47.700;7.924;2023-05-21T02:20:24;14.40;99.90
42615;DHT22;28754;47.700;7.924;2023-05-21T02:23:11;14.30;99.90
42615;DHT22;28754;47.700;7.924;2023-05-21T02:25:58;14.30;99.90
42615;DHT22;28754;47.700;7.924;2023-05-21T02:28:44;14.20;99.90
42615;DHT22;28754;47.700;7.924;2023-05-21T02:31:31;14.20;99.90
42615;DHT22;28754;47.700;7.924;2023-05-21T02:34:18;14.20;99.90
42615;DHT22;28754;47.700;7.924;2023-05-21T02:37:05;14.20;99.90
42615;DHT22;28754;47.700;7.924;2023-05-21T02:39:53;14.20;99.90
42615;DHT22;28754;47.700;7.924;2023-05-21T02:42:40;14.20;99.90
42615;DHT22;28754;47.700;7.924;2023-05-21T02:45:29;14.10;99.90
42615;DHT22;28754;47.700;7.924;2023-05-21T02:48:16;14.10;99.90
42615;DHT22;28754;47.700;7.924;2023-05-21T02:51:03;14.10;99.90
42615;DHT22;28754;47.700;7.924;2023-05-21T02:53:50;14.10;99.90
42615;DHT22;28754;47.700;7.924;2023-05-21T02:56:37;14.10;99.90
42615;DHT22;28754;47.700;7.924;2023-05-21T02:59:24;14.00;99.90
42615;DHT22;28754;47.700;7.924;2023-05-21T03:02:11;14.00;99.90
42615;DHT22;28754;47.700;7.924;2023-05-21T03:04:58;14.00;99.90
42615;DHT22;28754;47.700;7.924;2023-05-21T03:07:45;13.90;99.90
42615;DHT22;28754;47.700;7.924;2023-05-21T03:10:32;13.80;99.90
42615;DHT22;28754;47.700;7.924;2023-05-21T03:13:19;13.70;99.90
42615;DHT22;28754;47.700;7.924;2023-05-21T03:16:07;13.70;99.90
42615;DHT22;28754;47.700;7.924;2023-05-21T03:18:54;13.70;99.90
42615;DHT22;28754;47.700;7.924;2023-05-21T03:21:41;13.60;99.90
42615;DHT22;28754;47.700;7.924;2023-05-21T03:24:28;13.50;99.90
42615;DHT22;28754;47.700;7.924;2023-05-21T03:27:21;13.40;99.90
42615;DHT22;28754;47.700;7.924;2023-05-21T03:30:08;13.40;99.90
42615;DHT22;28754;47.700;7.924;2023-05-21T03:33:04;13.30;99.90
42615;DHT22;28754;47.700;7.924;2023-05-21T03:35:52;13.30;99.90
42615;DHT22;28754;47.700;7.924;2023-05-21T03:38:40;13.30;99.90
42615;DHT22;28754;47.700;7.924;2023-05-21T03:41:28;13.20;99.90
42615;DHT22;28754;47.700;7.924;2023-05-21T03:44:21;13.10;99.90
42615;DHT22;28754;47.700;7.924;2023-05-21T03:47:19;13.10;99.90
42615;DHT22;28754;47.700;7.924;2023-05-21T03:50:08;13.00;99.90
42615;DHT22;28754;47.700;7.924;2023-05-21T03:52:56;12.90;99.90
42615;DHT22;28754;47.700;7.924;2023-05-21T03:55:43;12.90;99.90
42615;DHT22;28754;47.700;7.924;2023-05-21T03:58:29;12.90;99.90
42615;DHT22;28754;47.700;7.924;2023-05-21T04:01:16;12.90;99.90
42615;DHT22;28754;47.700;7.924;2023-05-21T04:04:04;12.90;99.90
42615;DHT22;28754;47.700;7.924;2023-05-21T04:06:51;12.90;99.90
42615;DHT22;28754;47.700;7.924;2023-05-21T04:09:41;12.80;99.90
42615;DHT22;28754;47.700;7.924;2023-05-21T04:12:27;12.90;99.90
42615;DHT22;28754;47.700;7.924;2023-05-21T04:15:14;12.90;99.90
42615;DHT22;28754;47.700;7.924;2023-05-21T04:18:04;13.00;99.90
42615;DHT22;28754;47.700;7.924;2023-05-21T04:20:52;13.00;99.90
42615;DHT22;28754;47.700;7.924;2023-05-21T04:23:39;13.00;99.90
42615;DHT22;28754;47.700;7.924;2023-05-21T04:26:33;13.00;99.90
42615;DHT22;28754;47.700;7.924;2023-05-21T04:29:20;13.00;99.90
42615;DHT22;28754;47.700;7.924;2023-05-21T04:32:08;13.00;99.90
42615;DHT22;28754;47.700;7.924;2023-05-21T04:34:55;12.90;99.90
42615;DHT22;28754;47.700;7.924;2023-05-21T04:37:42;13.00;99.90
42615;DHT22;28754;47.700;7.924;2023-05-21T04:40:31;12.80;99.90
42615;DHT22;28754;47.700;7.924;2023-05-21T04:43:18;12.70;99.90
42615;DHT22;28754;47.700;7.924;2023-05-21T04:46:12;12.80;99.90
42615;DHT22;28754;47.700;7.924;2023-05-21T04:48:59;12.90;99.90
42615;DHT22;28754;47.700;7.924;2023-05-21T04:51:49;13.00;99.90
42615;DHT22;28754;47.700;7.924;2023-05-21T04:54:36;13.00;99.90
42615;DHT22;28754;47.700;7.924;2023-05-21T04:57:24;13.10;99.90
42615;DHT22;28754;47.700;7.924;2023-05-21T05:00:11;13.20;99.90
42615;DHT22;28754;47.700;7.924;2023-05-21T05:03:02;13.20;99.90
42615;DHT22;28754;47.700;7.924;2023-05-21T05:05:49;13.40;99.90
42615;DHT22;28754;47.700;7.924;2023-05-21T05:08:36;13.50;99.90
42615;DHT22;28754;47.700;7.924;2023-05-21T05:11:23;13.60;99.90
42615;DHT22;28754;47.700;7.924;2023-05-21T05:14:11;13.70;99.90
42615;DHT22;28754;47.700;7.924;2023-05-21T05:17:01;13.60;99.90
42615;DHT22;28754;47.700;7.924;2023-05-21T05:19:48;13.60;99.90
42615;DHT22;28754;47.700;7.924;2023-05-21T05:22:35;13.80;99.90
42615;DHT22;28754;47.700;7.924;2023-05-21T05:25:21;13.80;99.90
42615;DHT22;28754;47.700;7.924;2023-05-21T05:28:08;14.00;99.90
42615;DHT22;28754;47.700;7.924;2023-05-21T05:30:56;14.10;99.90
42615;DHT22;28754;47.700;7.924;2023-05-21T05:33:44;14.10;99.90
42615;DHT22;28754;47.700;7.924;2023-05-21T05:36:31;14.30;99.90
42615;DHT22;28754;47.700;7.924;2023-05-21T05:39:19;14.50;99.90
42615;DHT22;28754;47.700;7.924;2023-05-21T05:42:06;14.40;99.90
42615;DHT22;28754;47.700;7.924;2023-05-21T05:44:53;14.60;99.90
42615;DHT22;28754;47.700;7.924;2023-05-21T05:47:40;14.70;99.90
42615;DHT22;28754;47.700;7.924;2023-05-21T05:50:27;14.80;99.90
42615;DHT22;28754;47.700;7.924;2023-05-21T05:53:13;14.90;99.90
42615;DHT22;28754;47.700;7.924;2023-05-21T05:56:00;15.10;99.90
42615;DHT22;28754;47.700;7.924;2023-05-21T05:58:47;15.00;99.90
42615;DHT22;28754;47.700;7.924;2023-05-21T06:01:36;15.10;99.90
42615;DHT22;28754;47.700;7.924;2023-05-21T06:04:23;15.40;99.90
42615;DHT22;28754;47.700;7.924;2023-05-21T06:07:10;15.50;99.90
42615;DHT22;28754;47.700;7.924;2023-05-21T06:09:59;15.60;99.90
42615;DHT22;28754;47.700;7.924;2023-05-21T06:12:46;15.70;99.90
42615;DHT22;28754;47.700;7.924;2023-05-21T06:15:33;15.70;99.90
42615;DHT22;28754;47.700;7.924;2023-05-21T06:18:20;15.80;99.90
42615;DHT22;28754;47.700;7.924;2023-05-21T06:21:07;16.10;99.90
42615;DHT22;28754;47.700;7.924;2023-05-21T06:23:54;16.30;99.90
42615;DHT22;28754;47.700;7.924;2023-05-21T06:26:41;16.20;99.90
42615;DHT22;28754;47.700;7.924;2023-05-21T06:29:29;16.40;99.90
42615;DHT22;28754;47.700;7.924;2023-05-21T06:32:16;16.20;99.90
42615;DHT22;28754;47.700;7.924;2023-05-21T06:35:05;16.20;99.90
42615;DHT22;28754;47.700;7.924;2023-05-21T06:37:52;16.50;99.90
42615;DHT22;28754;47.700;7.924;2023-05-21T06:40:40;16.80;99.90
42615;DHT22;28754;47.700;7.924;2023-05-21T06:43:45;17.00;99.90
42615;DHT22;28754;47.700;7.924;2023-05-21T06:46:50;17.00;99.90
42615;DHT22;28754;47.700;7.924;2023-05-21T06:49:38;17.30;99.90
42615;DHT22;28754;47.700;7.924;2023-05-21T06:52:28;17.50;99.90
42615;DHT22;28754;47.700;7.924;2023-05-21T06:55:17;17.40;99.90
42615;DHT22;28754;47.700;7.924;2023-05-21T06:58:22;17.30;99.90
42615;DHT22;28754;47.700;7.924;2023-05-21T07:01:36;17.10;99.90
42615;DHT22;28754;47.700;7.924;2023-05-21T07:04:30;17.10;99.90
42615;DHT22;28754;47.700;7.924;2023-05-21T07:07:17;17.20;99.90
42615;DHT22;28754;47.700;7.924;2023-05-21T07:10:09;17.50;99.90
42615;DHT22;28754;47.700;7.924;2023-05-21T07:12:58;17.90;99.90
42615;DHT22;28754;47.700;7.924;2023-05-21T07:15:50;18.50;99.90
42615;DHT22;28754;47.700;7.924;2023-05-21T07:18:57;18.70;99.90
42615;DHT22;28754;47.700;7.924;2023-05-21T07:21:52;19.00;99.90
42615;DHT22;28754;47.700;7.924;2023-05-21T07:24:44;18.00;99.90
42615;DHT22;28754;47.700;7.924;2023-05-21T07:27:31;18.20;99.90
42615;DHT22;28754;47.700;7.924;2023-05-21T07:30:19;18.60;99.90
42615;DHT22;28754;47.700;7.924;2023-05-21T07:33:06;18.70;99.90
42615;DHT22;28754;47.700;7.924;2023-05-21T07:35:53;18.20;99.90
42615;DHT22;28754;47.700;7.924;2023-05-21T07:38:40;18.50;99.90
42615;DHT22;28754;47.700;7.924;2023-05-21T07:41:28;18.50;99.90
42615;DHT22;28754;47.700;7.924;2023-05-21T07:44:17;18.00;99.90
42615;DHT22;28754;47.700;7.924;2023-05-21T07:47:05;17.90;99.90
42615;DHT22;28754;47.700;7.924;2023-05-21T07:49:53;18.20;99.90
42615;DHT22;28754;47.700;7.924;2023-05-21T07:52:43;18.80;99.90
42615;DHT22;28754;47.700;7.924;2023-05-21T07:55:30;18.90;99.90
42615;DHT22;28754;47.700;7.924;2023-05-21T07:58:17;19.20;99.90
42615;DHT22;28754;47.700;7.924;2023-05-21T08:01:08;19.00;99.90
42615;DHT22;28754;47.700;7.924;2023-05-21T08:03:58;19.00;99.90
42615;DHT22;28754;47.700;7.924;2023-05-21T08:06:51;19.20;99.90
42615;DHT22;28754;47.700;7.924;2023-05-21T08:09:39;19.70;99.90
42615;DHT22;28754;47.700;7.924;2023-05-21T08:12:27;19.80;99.90
42615;DHT22;28754;47.700;7.924;2023-05-21T08:15:14;19.20;99.90
42615;DHT22;28754;47.700;7.924;2023-05-21T08:18:04;18.80;99.90
42615;DHT22;28754;47.700;7.924;2023-05-21T08:20:52;18.50;99.90
42615;DHT22;28754;47.700;7.924;2023-05-21T08:23:40;18.80;99.90
42615;DHT22;28754;47.700;7.924;2023-05-21T08:26:27;19.50;99.90
42615;DHT22;28754;47.700;7.924;2023-05-21T08:29:14;18.90;99.90
42615;DHT22;28754;47.700;7.924;2023-05-21T08:32:01;18.80;99.90
42615;DHT22;28754;47.700;7.924;2023-05-21T08:34:48;18.80;99.90
42615;DHT22;28754;47.700;7.924;2023-05-21T08:38:07;19.10;99.90
42615;DHT22;28754;47.700;7.924;2023-05-21T08:41:05;18.70;99.90
42615;DHT22;28754;47.700;7.924;2023-05-21T08:43:55;18.40;99.90
42615;DHT22;28754;47.700;7.924;2023-05-21T08:46:49;18.30;99.90
42615;DHT22;28754;47.700;7.924;2023-05-21T08:49:38;18.30;99.90
42615;DHT22;28754;47.700;7.924;2023-05-21T08:52:30;18.70;99.90
42615;DHT22;28754;47.700;7.924;2023-05-21T08:55:17;18.50;99.90
42615;DHT22;28754;47.700;7.924;2023-05-21T08:58:05;18.80;99.90
42615;DHT22;28754;47.700;7.924;2023-05-21T09:00:53;19.50;99.90
42615;DHT22;28754;47.700;7.924;2023-05-21T09:03:42;19.20;99.90
42615;DHT22;28754;47.700;7.924;2023-05-21T09:06:29;19.60;99.90
42615;DHT22;28754;47.700;7.924;2023-05-21T09:13:18;20.10;99.90
42615;DHT22;28754;47.700;7.924;2023-05-21T09:16:10;19.70;99.90
42615;DHT22;28754;47.700;7.924;2023-05-21T09:18:59;20.50;99.90
42615;DHT22;28754;47.700;7.924;2023-05-21T09:22:00;20.30;99.90
42615;DHT22;28754;47.700;7.924;2023-05-21T09:24:53;20.60;99.90
42615;DHT22;28754;47.700;7.924;2023-05-21T09:27:40;20.60;99.90
42615;DHT22;28754;47.700;7.924;2023-05-21T09:30:30;20.10;99.90
42615;DHT22;28754;47.700;7.924;2023-05-21T09:33:25;20.30;99.90
42615;DHT22;28754;47.700;7.924;2023-05-21T09:36:13;20.30;99.90
42615;DHT22;28754;47.700;7.924;2023-05-21T09:39:07;20.20;99.90
42615;DHT22;28754;47.700;7.924;2023-05-21T09:41:59;20.30;99.90
42615;DHT22;28754;47.700;7.924;2023-05-21T09:44:46;20.80;99.90
42615;DHT22;28754;47.700;7.924;2023-05-21T09:47:33;21.60;99.90
42615;DHT22;28754;47.700;7.924;2023-05-21T09:50:27;21.80;99.90
42615;DHT22;28754;47.700;7.924;2023-05-21T09:53:13;21.60;99.90
42615;DHT22;28754;47.700;7.924;2023-05-21T09:56:01;21.30;99.90
42615;DHT22;28754;47.700;7.924;2023-05-21T09:58:59;21.00;99.90
42615;DHT22;28754;47.700;7.924;2023-05-21T10:01:50;21.20;99.90
42615;DHT22;28754;47.700;7.924;2023-05-21T10:04:38;21.50;99.90
42615;DHT22;28754;47.700;7.924;2023-05-21T10:07:26;21.60;99.90
42615;DHT22;28754;47.700;7.924;2023-05-21T10:10:14;21.80;99.90
42615;DHT22;28754;47.700;7.924;2023-05-21T10:13:05;21.60;99.90
42615;DHT22;28754;47.700;7.924;2023-05-21T10:16:00;21.00;99.90
42615;DHT22;28754;47.700;7.924;2023-05-21T10:18:50;20.60;99.90
42615;DHT22;28754;47.700;7.924;2023-05-21T10:21:40;20.60;99.90
42615;DHT22;28754;47.700;7.924;2023-05-21T10:24:27;20.60;99.90
42615;DHT22;28754;47.700;7.924;2023-05-21T10:27:16;20.70;99.90
42615;DHT22;28754;47.700;7.924;2023-05-21T10:30:06;21.20;99.90
42615;DHT22;28754;47.700;7.924;2023-05-21T10:32:55;21.40;99.90
42615;DHT22;28754;47.700;7.924;2023-05-21T10:35:46;22.50;99.90
42615;DHT22;28754;47.700;7.924;2023-05-21T10:38:37;22.80;99.90
42615;DHT22;28754;47.700;7.924;2023-05-21T10:41:26;21.60;99.90
42615;DHT22;28754;47.700;7.924;2023-05-21T10:54:21;22.00;99.90
42615;DHT22;28754;47.700;7.924;2023-05-21T11:01:07;23.20;99.90
42615;DHT22;28754;47.700;7.924;2023-05-21T11:04:04;21.60;99.90
42615;DHT22;28754;47.700;7.924;2023-05-21T11:07:58;21.70;99.90
42615;DHT22;28754;47.700;7.924;2023-05-21T11:11:44;21.50;99.90
42615;DHT22;28754;47.700;7.924;2023-05-21T11:14:56;21.20;99.90
42615;DHT22;28754;47.700;7.924;2023-05-21T11:17:48;21.40;99.90
42615;DHT22;28754;47.700;7.924;2023-05-21T11:20:37;20.90;99.90
42615;DHT22;28754;47.700;7.924;2023-05-21T11:23:50;20.60;99.90
42615;DHT22;28754;47.700;7.924;2023-05-21T11:31:26;21.40;99.90
42615;DHT22;28754;47.700;7.924;2023-05-21T11:38:29;21.00;99.90
42615;DHT22;28754;47.700;7.924;2023-05-21T11:41:19;21.50;99.90
42615;DHT22;28754;47.700;7.924;2023-05-21T11:44:39;21.70;99.90
42615;DHT22;28754;47.700;7.924;2023-05-21T11:47:28;21.90;99.90
42615;DHT22;28754;47.700;7.924;2023-05-21T11:50:17;21.80;99.90
42615;DHT22;28754;47.700;7.924;2023-05-21T11:53:10;21.20;99.90
42615;DHT22;28754;47.700;7.924;2023-05-21T11:56:01;21.90;99.90
42615;DHT22;28754;47.700;7.924;2023-05-21T11:58:50;21.80;99.90
42615;DHT22;28754;47.700;7.924;2023-05-21T12:01:42;22.70;99.90
42615;DHT22;28754;47.700;7.924;2023-05-21T12:04:34;22.80;99.90
42615;DHT22;28754;47.700;7.924;2023-05-21T12:07:26;23.10;99.90
42615;DHT22;28754;47.700;7.924;2023-05-21T12:10:15;23.90;99.90
42615;DHT22;28754;47.700;7.924;2023-05-21T12:13:02;24.20;99.90
42615;DHT22;28754;47.700;7.924;2023-05-21T12:15:52;23.10;99.90
42615;DHT22;28754;47.700;7.924;2023-05-21T12:18:57;22.70;99.90
42615;DHT22;28754;47.700;7.924;2023-05-21T12:22:48;22.70;99.90
42615;DHT22;28754;47.700;7.924;2023-05-21T12:25:35;22.90;99.90
42615;DHT22;28754;47.700;7.924;2023-05-21T12:28:22;22.80;99.90
42615;DHT22;28754;47.700;7.924;2023-05-21T12:31:14;22.60;99.90
42615;DHT22;28754;47.700;7.924;2023-05-21T12:34:02;22.40;99.90
42615;DHT22;28754;47.700;7.924;2023-05-21T12:36:48;22.50;99.90
42615;DHT22;28754;47.700;7.924;2023-05-21T12:39:43;22.50;99.90
42615;DHT22;28754;47.700;7.924;2023-05-21T12:42:31;22.30;99.90
42615;DHT22;28754;47.700;7.924;2023-05-21T12:45:22;22.30;99.90
42615;DHT22;28754;47.700;7.924;2023-05-21T12:48:08;22.30;99.90
42615;DHT22;28754;47.700;7.924;2023-05-21T12:51:00;22.80;99.90
42615;DHT22;28754;47.700;7.924;2023-05-21T12:53:47;23.60;99.90
42615;DHT22;28754;47.700;7.924;2023-05-21T12:56:43;24.10;99.90
42615;DHT22;28754;47.700;7.924;2023-05-21T12:59:48;24.20;99.90
42615;DHT22;28754;47.700;7.924;2023-05-21T13:03:24;24.30;99.90
42615;DHT22;28754;47.700;7.924;2023-05-21T13:06:19;24.60;99.90
42615;DHT22;28754;47.700;7.924;2023-05-21T13:09:06;24.90;99.90
42615;DHT22;28754;47.700;7.924;2023-05-21T13:11:53;25.50;99.90
42615;DHT22;28754;47.700;7.924;2023-05-21T13:19:04;26.10;99.90
42615;DHT22;28754;47.700;7.924;2023-05-21T13:21:51;26.40;99.90
42615;DHT22;28754;47.700;7.924;2023-05-21T13:24:40;26.60;99.90
42615;DHT22;28754;47.700;7.924;2023-05-21T13:27:27;26.20;99.90
42615;DHT22;28754;47.700;7.924;2023-05-21T13:30:14;26.20;99.90
42615;DHT22;28754;47.700;7.924;2023-05-21T13:33:01;26.10;99.90
42615;DHT22;28754;47.700;7.924;2023-05-21T13:35:48;26.20;99.90
42615;DHT22;28754;47.700;7.924;2023-05-21T13:38:39;26.00;99.90
42615;DHT22;28754;47.700;7.924;2023-05-21T13:41:26;25.70;99.90
42615;DHT22;28754;47.700;7.924;2023-05-21T13:44:13;25.70;99.90
42615;DHT22;28754;47.700;7.924;2023-05-21T13:47:00;26.10;99.90
42615;DHT22;28754;47.700;7.924;2023-05-21T13:49:48;26.50;99.90
42615;DHT22;28754;47.700;7.924;2023-05-21T13:52:35;26.80;99.90
42615;DHT22;28754;47.700;7.924;2023-05-21T13:55:23;27.00;99.90
42615;DHT22;28754;47.700;7.924;2023-05-21T13:58:09;27.00;99.90
42615;DHT22;28754;47.700;7.924;2023-05-21T14:00:56;26.50;99.90
42615;DHT22;28754;47.700;7.924;2023-05-21T14:03:43;26.20;99.90
42615;DHT22;28754;47.700;7.924;2023-05-21T14:06:33;26.10;99.90
42615;DHT22;28754;47.700;7.924;2023-05-21T14:09:20;26.20;99.90
42615;DHT22;28754;47.700;7.924;2023-05-21T14:12:08;26.20;99.90
42615;DHT22;28754;47.700;7.924;2023-05-21T14:14:55;25.90;99.90
42615;DHT22;28754;47.700;7.924;2023-05-21T14:17:42;26.10;99.90
42615;DHT22;28754;47.700;7.924;2023-05-21T14:20:29;26.00;99.90
42615;DHT22;28754;47.700;7.924;2023-05-21T14:23:17;25.60;99.90
42615;DHT22;28754;47.700;7.924;2023-05-21T14:26:03;25.80;99.90
42615;DHT22;28754;47.700;7.924;2023-05-21T14:28:58;25.20;99.90
42615;DHT22;28754;47.700;7.924;2023-05-21T14:31:59;24.40;99.90
42615;DHT22;28754;47.700;7.924;2023-05-21T14:34:49;24.30;99.90
42615;DHT22;28754;47.700;7.924;2023-05-21T14:37:36;24.20;99.90
42615;DHT22;28754;47.700;7.924;2023-05-21T14:40:22;23.00;99.90
42615;DHT22;28754;47.700;7.924;2023-05-21T14:43:09;22.50;99.90
42615;DHT22;28754;47.700;7.924;2023-05-21T14:45:56;22.40;99.90
42615;DHT22;28754;47.700;7.924;2023-05-21T14:48:43;22.60;99.90
42615;DHT22;28754;47.700;7.924;2023-05-21T14:51:31;23.00;99.90
42615;DHT22;28754;47.700;7.924;2023-05-21T14:54:18;23.50;99.90
42615;DHT22;28754;47.700;7.924;2023-05-21T14:57:05;24.20;99.90
42615;DHT22;28754;47.700;7.924;2023-05-21T14:59:52;24.50;99.90
42615;DHT22;28754;47.700;7.924;2023-05-21T15:02:38;24.60;99.90
42615;DHT22;28754;47.700;7.924;2023-05-21T15:05:26;24.30;99.90
42615;DHT22;28754;47.700;7.924;2023-05-21T15:08:14;24.90;99.90
42615;DHT22;28754;47.700;7.924;2023-05-21T15:11:01;25.00;99.90
42615;DHT22;28754;47.700;7.924;2023-05-21T15:13:49;25.00;99.90
42615;DHT22;28754;47.700;7.924;2023-05-21T15:16:44;24.90;99.90
42615;DHT22;28754;47.700;7.924;2023-05-21T15:19:31;24.70;99.90
42615;DHT22;28754;47.700;7.924;2023-05-21T15:22:21;24.80;99.90
42615;DHT22;28754;47.700;7.924;2023-05-21T15:25:22;24.60;99.90
42615;DHT22;28754;47.700;7.924;2023-05-21T15:28:17;24.90;99.90
42615;DHT22;28754;47.700;7.924;2023-05-21T15:31:08;24.70;99.90
42615;DHT22;28754;47.700;7.924;2023-05-21T15:33:56;24.90;99.90
42615;DHT22;28754;47.700;7.924;2023-05-21T15:36:43;25.00;99.90
42615;DHT22;28754;47.700;7.924;2023-05-21T15:39:30;24.50;99.90
42615;DHT22;28754;47.700;7.924;2023-05-21T15:42:17;24.30;99.90
42615;DHT22;28754;47.700;7.924;2023-05-21T15:45:04;23.80;99.90
42615;DHT22;28754;47.700;7.924;2023-05-21T15:47:51;23.50;99.90
42615;DHT22;28754;47.700;7.924;2023-05-21T15:50:37;23.00;99.90
42615;DHT22;28754;47.700;7.924;2023-05-21T15:53:27;23.00;99.90
42615;DHT22;28754;47.700;7.924;2023-05-21T15:56:14;22.90;99.90
42615;DHT22;28754;47.700;7.924;2023-05-21T15:59:01;22.70;99.90
42615;DHT22;28754;47.700;7.924;2023-05-21T16:01:49;22.80;99.90
42615;DHT22;28754;47.700;7.924;2023-05-21T16:04:36;23.00;99.90
42615;DHT22;28754;47.700;7.924;2023-05-21T16:07:23;23.00;99.90
42615;DHT22;28754;47.700;7.924;2023-05-21T16:10:09;23.10;99.90
42615;DHT22;28754;47.700;7.924;2023-05-21T16:13:09;23.10;99.90
42615;DHT22;28754;47.700;7.924;2023-05-21T16:16:04;23.00;99.90
42615;DHT22;28754;47.700;7.924;2023-05-21T16:18:51;23.00;99.90
42615;DHT22;28754;47.700;7.924;2023-05-21T16:21:38;22.90;99.90
42615;DHT22;28754;47.700;7.924;2023-05-21T16:24:25;22.50;99.90
42615;DHT22;28754;47.700;7.924;2023-05-21T16:27:12;21.80;99.90
42615;DHT22;28754;47.700;7.924;2023-05-21T16:29:59;21.10;99.90
42615;DHT22;28754;47.700;7.924;2023-05-21T16:32:45;20.00;99.90
42615;DHT22;28754;47.700;7.924;2023-05-21T16:35:32;19.40;99.90
42615;DHT22;28754;47.700;7.924;2023-05-21T16:38:20;19.20;99.90
42615;DHT22;28754;47.700;7.924;2023-05-21T16:41:07;19.10;99.90
42615;DHT22;28754;47.700;7.924;2023-05-21T16:43:54;18.70;99.90
42615;DHT22;28754;47.700;7.924;2023-05-21T16:46:41;18.40;99.90
42615;DHT22;28754;47.700;7.924;2023-05-21T16:49:28;18.40;99.90
42615;DHT22;28754;47.700;7.924;2023-05-21T16:52:17;18.50;99.90
42615;DHT22;28754;47.700;7.924;2023-05-21T16:55:04;18.30;99.90
42615;DHT22;28754;47.700;7.924;2023-05-21T16:57:51;17.70;99.90
42615;DHT22;28754;47.700;7.924;2023-05-21T17:00:38;17.60;99.90
42615;DHT22;28754;47.700;7.924;2023-05-21T17:03:25;17.70;99.90
42615;DHT22;28754;47.700;7.924;2023-05-21T17:06:12;17.80;99.90
42615;DHT22;28754;47.700;7.924;2023-05-21T17:09:00;18.00;99.90
42615;DHT22;28754;47.700;7.924;2023-05-21T17:11:46;18.00;99.90
42615;DHT22;28754;47.700;7.924;2023-05-21T17:14:33;18.00;99.90
42615;DHT22;28754;47.700;7.924;2023-05-21T17:17:20;18.00;99.90
42615;DHT22;28754;47.700;7.924;2023-05-21T17:20:07;17.90;99.90
42615;DHT22;28754;47.700;7.924;2023-05-21T17:22:54;18.00;99.90
42615;DHT22;28754;47.700;7.924;2023-05-21T17:25:41;18.10;99.90
42615;DHT22;28754;47.700;7.924;2023-05-21T17:28:28;18.10;99.90
42615;DHT22;28754;47.700;7.924;2023-05-21T17:31:17;18.10;99.90
42615;DHT22;28754;47.700;7.924;2023-05-21T17:34:04;18.10;99.90
42615;DHT22;28754;47.700;7.924;2023-05-21T17:36:52;18.10;99.90
42615;DHT22;28754;47.700;7.924;2023-05-21T17:39:40;18.10;99.90
42615;DHT22;28754;47.700;7.924;2023-05-21T17:42:26;18.00;99.90
42615;DHT22;28754;47.700;7.924;2023-05-21T17:45:13;17.90;99.90
42615;DHT22;28754;47.700;7.924;2023-05-21T17:48:00;17.90;99.90
42615;DHT22;28754;47.700;7.924;2023-05-21T17:50:49;17.80;99.90
42615;DHT22;28754;47.700;7.924;2023-05-21T17:53:45;17.70;99.90
42615;DHT22;28754;47.700;7.924;2023-05-21T17:56:33;17.70;99.90
42615;DHT22;28754;47.700;7.924;2023-05-21T17:59:24;17.50;99.90
42615;DHT22;28754;47.700;7.924;2023-05-21T18:02:11;17.50;99.90
42615;DHT22;28754;47.700;7.924;2023-05-21T18:04:58;17.30;99.90
42615;DHT22;28754;47.700;7.924;2023-05-21T18:07:45;17.20;99.90
42615;DHT22;28754;47.700;7.924;2023-05-21T18:10:34;17.20;99.90
42615;DHT22;28754;47.700;7.924;2023-05-21T18:13:21;17.20;99.90
42615;DHT22;28754;47.700;7.924;2023-05-21T18:16:08;17.20;99.90
42615;DHT22;28754;47.700;7.924;2023-05-21T18:18:55;17.00;99.90
42615;DHT22;28754;47.700;7.924;2023-05-21T18:21:42;17.00;99.90
42615;DHT22;28754;47.700;7.924;2023-05-21T18:24:32;17.00;99.90
42615;DHT22;28754;47.700;7.924;2023-05-21T18:27:19;17.00;99.90